createdAt,value
2018-11-12T00:00:27.569Z,12.09
2018-11-12T00:01:27.550Z,12.13
2018-11-12T00:02:27.533Z,12.12
2018-11-12T00:03:27.508Z,12.16
2018-11-12T00:04:27.490Z,12.13
2018-11-12T00:05:27.468Z,12.16
2018-11-12T00:06:27.450Z,12.13
2018-11-12T00:07:27.429Z,12.13
2018-11-12T00:08:27.408Z,12.10
2018-11-12T00:09:27.397Z,12.07
2018-11-12T00:10:27.368Z,12.09
2018-11-12T00:11:27.347Z,12.12
2018-11-12T00:12:27.329Z,12.07
2018-11-12T00:13:27.315Z,12.09
2018-11-12T00:14:27.287Z,12.10
2018-11-12T00:15:27.267Z,12.10
2018-11-12T00:16:27.248Z,12.13
2018-11-12T00:17:27.229Z,12.13
2018-11-12T00:18:27.211Z,12.05
2018-11-12T00:19:27.187Z,12.05
2018-11-12T00:20:27.169Z,11.99
2018-11-12T00:21:27.154Z,11.99
2018-11-12T00:22:27.125Z,11.99
2018-11-12T00:23:27.110Z,11.96
2018-11-12T00:24:27.089Z,12.02
2018-11-12T00:25:27.063Z,12.02
2018-11-12T00:26:27.046Z,11.98
2018-11-12T00:27:27.026Z,12.04
2018-11-12T00:28:27.004Z,11.85
2018-11-12T00:29:26.983Z,12.05
2018-11-12T00:30:26.965Z,12.01
2018-11-12T00:31:26.953Z,11.99
2018-11-12T00:32:26.927Z,12.01
2018-11-12T00:33:26.901Z,12.05
2018-11-12T00:34:26.881Z,12.04
2018-11-12T00:35:26.860Z,12.09
2018-11-12T00:36:26.841Z,11.95
2018-11-12T00:37:26.829Z,12.01
2018-11-12T00:38:26.799Z,11.99
2018-11-12T00:39:26.780Z,12.01
2018-11-12T00:40:26.760Z,11.86
2018-11-12T00:41:26.737Z,12.01
2018-11-12T00:42:26.729Z,12.01
2018-11-12T00:43:26.699Z,11.99
2018-11-12T00:44:26.679Z,11.95
2018-11-12T00:45:26.658Z,11.90
2018-11-12T00:46:26.637Z,11.85
2018-11-12T00:47:26.618Z,11.94
2018-11-12T00:48:26.604Z,11.86
2018-11-12T00:49:26.577Z,11.90
2018-11-12T00:50:26.557Z,11.98
2018-11-12T00:51:26.536Z,11.85
2018-11-12T00:52:26.518Z,12.01
2018-11-12T00:53:26.496Z,11.86
2018-11-12T00:54:26.474Z,11.95
2018-11-12T00:55:26.456Z,11.88
2018-11-12T00:56:26.432Z,11.98
2018-11-12T00:57:26.421Z,11.86
2018-11-12T00:58:26.395Z,12.01
2018-11-12T00:59:26.373Z,11.98
2018-11-12T01:00:26.354Z,12.02
2018-11-12T01:01:26.345Z,11.95
2018-11-12T01:02:26.317Z,12.04
2018-11-12T01:03:26.292Z,11.99
2018-11-12T01:04:26.274Z,11.96
2018-11-12T01:05:26.251Z,12.02
2018-11-12T01:06:26.232Z,11.96
2018-11-12T01:07:26.215Z,11.95
2018-11-12T01:08:26.199Z,12.01
2018-11-12T01:09:26.171Z,12.02
2018-11-12T01:10:26.161Z,12.02
2018-11-12T01:11:26.130Z,12.01
2018-11-12T01:12:26.117Z,12.04
2018-11-12T01:13:26.093Z,12.01
2018-11-12T01:14:26.069Z,12.01
2018-11-12T01:15:26.058Z,11.99
2018-11-12T01:16:26.029Z,12.02
2018-11-12T01:17:26.011Z,11.99
2018-11-12T01:18:25.988Z,11.96
2018-11-12T01:19:25.968Z,12.04
2018-11-12T01:20:25.949Z,11.86
2018-11-12T01:21:25.928Z,12.09
2018-11-12T01:22:25.909Z,11.88
2018-11-12T01:23:25.932Z,11.98
2018-11-12T01:24:25.866Z,11.96
2018-11-12T01:25:25.853Z,11.88
2018-11-12T01:26:25.830Z,11.95
2018-11-12T01:27:25.807Z,12.05
2018-11-12T01:28:25.791Z,11.95
2018-11-12T01:29:25.765Z,11.91
2018-11-12T01:30:25.747Z,11.86
2018-11-12T01:31:25.730Z,11.96
2018-11-12T01:32:25.705Z,11.96
2018-11-12T01:33:25.684Z,11.88
2018-11-12T01:34:25.664Z,11.95
2018-11-12T01:35:25.643Z,11.94
2018-11-12T01:36:25.623Z,11.95
2018-11-12T01:37:25.601Z,11.86
2018-11-12T01:38:25.582Z,11.85
2018-11-12T01:39:25.567Z,11.95
2018-11-12T01:40:25.543Z,11.95
2018-11-12T01:41:25.521Z,11.99
2018-11-12T01:42:25.501Z,11.90
2018-11-12T01:43:25.481Z,11.95
2018-11-12T01:44:25.460Z,11.85
2018-11-12T01:45:25.439Z,11.94
2018-11-12T01:46:25.421Z,11.85
2018-11-12T01:47:25.400Z,11.78
2018-11-12T01:48:25.380Z,11.78
2018-11-12T01:49:25.359Z,11.78
2018-11-12T01:50:25.342Z,11.78
2018-11-12T01:51:25.319Z,11.82
2018-11-12T01:52:25.301Z,11.83
2018-11-12T01:53:25.281Z,11.79
2018-11-12T01:54:25.263Z,11.96
2018-11-12T01:55:25.236Z,11.95
2018-11-12T01:56:25.227Z,11.94
2018-11-12T01:57:25.200Z,11.90
2018-11-12T01:58:25.177Z,11.91
2018-11-12T01:59:25.157Z,11.88
2018-11-12T02:00:25.137Z,11.88
2018-11-12T02:01:25.159Z,11.90
2018-11-12T02:02:25.101Z,11.90
2018-11-12T02:03:25.075Z,11.88
2018-11-12T02:04:25.059Z,11.95
2018-11-12T02:05:25.035Z,11.88
2018-11-12T02:06:25.016Z,11.85
2018-11-12T02:07:24.996Z,11.88
2018-11-12T02:08:24.975Z,11.95
2018-11-12T02:09:24.966Z,11.78
2018-11-12T02:10:24.934Z,11.79
2018-11-12T02:11:24.912Z,11.78
2018-11-12T02:12:24.894Z,11.79
2018-11-12T02:13:24.875Z,11.76
2018-11-12T02:14:24.860Z,11.80
2018-11-12T02:15:24.833Z,11.82
2018-11-12T02:16:24.814Z,11.76
2018-11-12T02:17:24.791Z,11.78
2018-11-12T02:18:24.772Z,11.79
2018-11-12T02:19:24.753Z,11.78
2018-11-12T02:20:24.733Z,11.80
2018-11-12T02:21:24.722Z,11.88
2018-11-12T02:22:24.723Z,11.85
2018-11-12T02:23:24.679Z,11.90
2018-11-12T02:24:24.650Z,11.79
2018-11-12T02:25:24.633Z,11.82
2018-11-12T02:26:24.612Z,11.82
2018-11-12T02:27:24.590Z,11.88
2018-11-12T02:28:24.571Z,11.80
2018-11-12T02:29:24.556Z,11.79
2018-11-12T02:30:24.538Z,11.79
2018-11-12T02:31:24.576Z,11.79
2018-11-12T02:32:24.492Z,11.78
2018-11-12T02:33:24.556Z,11.78
2018-11-12T02:34:24.447Z,11.82
2018-11-12T02:35:24.428Z,11.83
2018-11-12T02:36:24.407Z,11.80
2018-11-12T02:37:24.384Z,11.86
2018-11-12T02:38:24.370Z,11.82
2018-11-12T02:39:24.347Z,11.79
2018-11-12T02:40:24.333Z,11.78
2018-11-12T02:41:24.304Z,11.86
2018-11-12T02:42:24.285Z,11.79
2018-11-12T02:43:24.265Z,11.75
2018-11-12T02:44:24.249Z,11.82
2018-11-12T02:45:24.228Z,11.90
2018-11-12T02:46:24.203Z,11.94
2018-11-12T02:47:24.183Z,11.79
2018-11-12T02:48:24.162Z,11.79
2018-11-12T02:49:24.145Z,11.78
2018-11-12T02:50:24.120Z,11.75
2018-11-12T02:51:24.098Z,11.76
2018-11-12T02:52:24.080Z,11.86
2018-11-12T02:53:24.058Z,11.80
2018-11-12T02:54:24.038Z,11.79
2018-11-12T02:55:24.017Z,11.79
2018-11-12T02:56:23.999Z,11.76
2018-11-12T02:57:24.034Z,11.83
2018-11-12T02:58:23.959Z,11.82
2018-11-12T02:59:23.937Z,11.82
2018-11-12T03:00:23.915Z,11.85
2018-11-12T03:01:23.896Z,11.80
2018-11-12T03:02:23.876Z,11.78
2018-11-12T03:03:23.854Z,11.83
2018-11-12T03:04:23.841Z,11.80
2018-11-12T03:05:23.811Z,11.83
2018-11-12T03:06:23.795Z,11.80
2018-11-12T03:07:23.810Z,11.83
2018-11-12T03:08:23.753Z,11.79
2018-11-12T03:09:23.731Z,11.78
2018-11-12T03:10:23.717Z,11.94
2018-11-12T03:11:23.692Z,11.85
2018-11-12T03:12:23.672Z,11.73
2018-11-12T03:13:23.654Z,11.78
2018-11-12T03:14:23.634Z,11.80
2018-11-12T03:15:23.610Z,11.78
2018-11-12T03:16:23.591Z,11.90
2018-11-12T03:17:23.570Z,11.88
2018-11-12T03:18:23.548Z,11.90
2018-11-12T03:19:23.542Z,11.80
2018-11-12T03:20:23.510Z,11.90
2018-11-12T03:21:23.492Z,11.94
2018-11-12T03:22:23.468Z,11.91
2018-11-12T03:23:23.447Z,11.80
2018-11-12T03:24:23.428Z,11.90
2018-11-12T03:25:23.405Z,11.88
2018-11-12T03:26:23.387Z,11.86
2018-11-12T03:27:23.403Z,11.76
2018-11-12T03:28:23.347Z,11.80
2018-11-12T03:29:23.326Z,11.80
2018-11-12T03:30:23.307Z,11.85
2018-11-12T03:31:23.285Z,11.79
2018-11-12T03:32:23.269Z,11.78
2018-11-12T03:33:23.249Z,11.91
2018-11-12T03:34:23.224Z,11.94
2018-11-12T03:35:23.207Z,11.86
2018-11-12T03:36:23.188Z,11.94
2018-11-12T03:37:23.163Z,11.88
2018-11-12T03:38:23.154Z,11.91
2018-11-12T03:39:23.195Z,11.90
2018-11-12T03:40:23.103Z,11.88
2018-11-12T03:41:23.083Z,11.82
2018-11-12T03:42:23.062Z,11.78
2018-11-12T03:43:23.040Z,11.76
2018-11-12T03:44:23.021Z,11.80
2018-11-12T03:45:23.004Z,11.95
2018-11-12T03:46:22.980Z,11.98
2018-11-12T03:47:22.961Z,11.90
2018-11-12T03:48:22.940Z,11.86
2018-11-12T03:49:22.921Z,11.91
2018-11-12T03:50:22.898Z,11.94
2018-11-12T03:51:22.877Z,11.85
2018-11-12T03:52:22.860Z,11.83
2018-11-12T03:53:22.839Z,11.88
2018-11-12T03:54:22.819Z,11.82
2018-11-12T03:55:22.809Z,11.94
2018-11-12T03:56:22.780Z,11.96
2018-11-12T03:57:22.757Z,11.94
2018-11-12T03:58:22.738Z,11.90
2018-11-12T03:59:22.716Z,11.88
2018-11-12T04:00:22.802Z,11.91
2018-11-12T04:01:22.675Z,11.95
2018-11-12T04:02:22.656Z,11.85
2018-11-12T04:03:22.636Z,11.96
2018-11-12T04:04:22.621Z,11.91
2018-11-12T04:05:22.596Z,11.88
2018-11-12T04:06:22.583Z,11.95
2018-11-12T04:07:22.559Z,11.88
2018-11-12T04:08:22.536Z,11.88
2018-11-12T04:09:22.523Z,11.85
2018-11-12T04:10:22.496Z,11.98
2018-11-12T04:11:22.475Z,11.85
2018-11-12T04:12:22.457Z,11.76
2018-11-12T04:13:22.438Z,11.94
2018-11-12T04:14:22.419Z,11.90
2018-11-12T04:15:22.394Z,11.88
2018-11-12T04:16:22.375Z,11.80
2018-11-12T04:17:22.355Z,11.85
2018-11-12T04:18:22.333Z,11.76
2018-11-12T04:19:22.314Z,11.86
2018-11-12T04:20:22.293Z,11.78
2018-11-12T04:21:22.274Z,11.80
2018-11-12T04:22:22.253Z,11.80
2018-11-12T04:23:22.236Z,11.73
2018-11-12T04:24:22.251Z,11.73
2018-11-12T04:25:22.191Z,11.83
2018-11-12T04:26:22.171Z,11.76
2018-11-12T04:27:22.153Z,11.75
2018-11-12T04:28:22.132Z,11.60
2018-11-12T04:29:22.112Z,11.58
2018-11-12T04:30:22.093Z,11.57
2018-11-12T04:31:22.072Z,11.58
2018-11-12T04:32:22.050Z,11.57
2018-11-12T04:33:22.029Z,11.75
2018-11-12T04:34:22.009Z,11.70
2018-11-12T04:35:21.992Z,11.72
2018-11-12T04:36:21.985Z,11.78
2018-11-12T04:37:21.947Z,11.73
2018-11-12T04:38:21.931Z,11.79
2018-11-12T04:39:21.909Z,11.76
2018-11-12T04:40:21.891Z,11.80
2018-11-12T04:41:21.868Z,11.79
2018-11-12T04:42:21.849Z,11.75
2018-11-12T04:43:21.829Z,11.85
2018-11-12T04:44:21.808Z,11.80
2018-11-12T04:45:21.800Z,11.78
2018-11-12T04:46:21.768Z,11.85
2018-11-12T04:47:21.753Z,11.79
2018-11-12T04:48:21.730Z,11.79
2018-11-12T04:49:21.706Z,11.78
2018-11-12T04:50:21.705Z,11.76
2018-11-12T04:51:21.665Z,11.73
2018-11-12T04:52:21.646Z,11.73
2018-11-12T04:53:21.632Z,11.80
2018-11-12T04:54:21.605Z,11.75
2018-11-12T04:55:21.698Z,11.67
2018-11-12T04:56:21.563Z,11.55
2018-11-12T04:57:21.544Z,11.60
2018-11-12T04:58:21.524Z,11.55
2018-11-12T04:59:21.505Z,11.61
2018-11-12T05:00:21.483Z,11.65
2018-11-12T05:01:21.462Z,11.67
2018-11-12T05:02:21.457Z,11.67
2018-11-12T05:03:21.422Z,11.69
2018-11-12T05:04:21.402Z,11.67
2018-11-12T05:05:21.382Z,11.67
2018-11-12T05:06:21.363Z,11.64
2018-11-12T05:07:21.355Z,11.60
2018-11-12T05:08:21.322Z,11.57
2018-11-12T05:09:21.300Z,11.57
2018-11-12T05:10:21.280Z,11.58
2018-11-12T05:11:21.260Z,11.57
2018-11-12T05:12:21.240Z,11.55
2018-11-12T05:13:21.218Z,11.57
2018-11-12T05:14:21.199Z,11.51
2018-11-12T05:15:21.179Z,11.55
2018-11-12T05:16:21.160Z,11.46
2018-11-12T05:17:21.138Z,11.47
2018-11-12T05:18:21.119Z,11.47
2018-11-12T05:19:21.098Z,11.44
2018-11-12T05:20:21.078Z,11.44
2018-11-12T05:21:21.058Z,11.43
2018-11-12T05:22:21.038Z,11.46
2018-11-12T05:23:21.026Z,11.43
2018-11-12T05:24:20.999Z,11.39
2018-11-12T05:25:20.980Z,11.44
2018-11-12T05:26:20.961Z,11.42
2018-11-12T05:27:20.934Z,11.47
2018-11-12T05:28:20.920Z,11.47
2018-11-12T05:29:20.895Z,11.44
2018-11-12T05:30:20.874Z,11.44
2018-11-12T05:31:20.852Z,11.42
2018-11-12T05:32:20.834Z,11.47
2018-11-12T05:33:20.813Z,11.46
2018-11-12T05:34:20.794Z,11.58
2018-11-12T05:35:20.773Z,11.42
2018-11-12T05:36:20.754Z,11.40
2018-11-12T05:37:20.732Z,11.40
2018-11-12T05:38:20.735Z,11.40
2018-11-12T05:39:20.698Z,11.52
2018-11-12T05:40:20.679Z,11.42
2018-11-12T05:41:20.651Z,11.42
2018-11-12T05:42:20.630Z,11.42
2018-11-12T05:43:20.612Z,11.47
2018-11-12T05:44:20.590Z,11.43
2018-11-12T05:45:20.573Z,11.52
2018-11-12T05:46:20.551Z,11.40
2018-11-12T05:47:20.535Z,11.46
2018-11-12T05:48:20.515Z,11.42
2018-11-12T05:49:20.488Z,11.40
2018-11-12T05:50:20.466Z,11.39
2018-11-12T05:51:20.466Z,11.40
2018-11-12T05:52:20.433Z,11.39
2018-11-12T05:53:20.406Z,11.40
2018-11-12T05:54:20.386Z,11.46
2018-11-12T05:55:20.367Z,11.39
2018-11-12T05:56:20.346Z,11.43
2018-11-12T05:57:20.326Z,11.43
2018-11-12T05:58:20.306Z,11.46
2018-11-12T05:59:20.285Z,11.49
2018-11-12T06:00:20.266Z,11.49
2018-11-12T06:01:20.244Z,11.49
2018-11-12T06:02:20.225Z,11.51
2018-11-12T06:03:20.210Z,11.52
2018-11-12T06:04:20.184Z,11.54
2018-11-12T06:05:20.162Z,11.46
2018-11-12T06:06:20.143Z,11.52
2018-11-12T06:07:20.129Z,11.49
2018-11-12T06:08:20.104Z,11.40
2018-11-12T06:09:20.142Z,11.52
2018-11-12T06:10:20.063Z,11.51
2018-11-12T06:11:20.046Z,11.44
2018-11-12T06:12:20.022Z,11.46
2018-11-12T06:13:20.005Z,11.43
2018-11-12T06:14:19.981Z,11.42
2018-11-12T06:15:19.965Z,11.44
2018-11-12T06:16:19.941Z,11.40
2018-11-12T06:17:19.920Z,11.42
2018-11-12T06:18:19.900Z,11.46
2018-11-12T06:19:19.880Z,11.46
2018-11-12T06:20:19.859Z,11.42
2018-11-12T06:21:19.844Z,11.46
2018-11-12T06:22:19.819Z,11.39
2018-11-12T06:23:19.802Z,11.36
2018-11-12T06:24:19.779Z,11.40
2018-11-12T06:25:19.759Z,11.40
2018-11-12T06:26:19.748Z,11.43
2018-11-12T06:27:19.718Z,11.47
2018-11-12T06:28:19.697Z,11.43
2018-11-12T06:29:19.674Z,11.47
2018-11-12T06:30:19.661Z,11.43
2018-11-12T06:31:19.706Z,11.44
2018-11-12T06:32:19.617Z,11.37
2018-11-12T06:33:19.593Z,11.49
2018-11-12T06:34:19.577Z,11.44
2018-11-12T06:35:19.553Z,11.37
2018-11-12T06:36:19.534Z,11.40
2018-11-12T06:37:19.515Z,11.42
2018-11-12T06:38:19.492Z,11.44
2018-11-12T06:39:19.473Z,11.46
2018-11-12T06:40:19.456Z,11.35
2018-11-12T06:41:19.431Z,11.42
2018-11-12T06:42:19.461Z,11.43
2018-11-12T06:43:19.474Z,11.42
2018-11-12T06:44:19.380Z,11.37
2018-11-12T06:45:19.350Z,11.33
2018-11-12T06:46:19.335Z,11.42
2018-11-12T06:47:19.308Z,11.49
2018-11-12T06:48:19.289Z,11.44
2018-11-12T06:49:19.266Z,11.42
2018-11-12T06:50:19.258Z,11.43
2018-11-12T06:51:19.228Z,11.46
2018-11-12T06:52:19.205Z,11.49
2018-11-12T06:53:19.214Z,11.40
2018-11-12T06:54:19.170Z,11.39
2018-11-12T06:55:19.149Z,11.46
2018-11-12T06:56:19.126Z,11.47
2018-11-12T06:57:19.104Z,11.49
2018-11-12T06:58:19.086Z,11.42
2018-11-12T06:59:19.074Z,11.51
2018-11-12T07:00:19.044Z,11.43
2018-11-12T07:01:19.023Z,11.54
2018-11-12T07:02:19.002Z,11.40
2018-11-12T07:03:18.985Z,11.44
2018-11-12T07:04:18.963Z,11.51
2018-11-12T07:05:18.946Z,11.55
2018-11-12T07:06:18.924Z,11.46
2018-11-12T07:07:18.900Z,11.51
2018-11-12T07:08:18.881Z,11.47
2018-11-12T07:09:18.861Z,11.46
2018-11-12T07:10:18.838Z,11.52
2018-11-12T07:11:18.818Z,11.52
2018-11-12T07:12:18.799Z,11.43
2018-11-12T07:13:18.834Z,11.40
2018-11-12T07:14:18.760Z,11.44
2018-11-12T07:15:18.741Z,11.49
2018-11-12T07:16:18.719Z,11.47
2018-11-12T07:17:18.697Z,11.44
2018-11-12T07:18:18.679Z,11.43
2018-11-12T07:19:18.657Z,11.57
2018-11-12T07:20:18.636Z,11.46
2018-11-12T07:21:18.617Z,11.46
2018-11-12T07:22:18.594Z,11.49
2018-11-12T07:23:18.577Z,11.58
2018-11-12T07:24:18.556Z,11.52
2018-11-12T07:25:18.605Z,11.54
2018-11-12T07:26:18.516Z,11.55
2018-11-12T07:27:18.494Z,11.55
2018-11-12T07:28:18.475Z,11.52
2018-11-12T07:29:18.465Z,11.58
2018-11-12T07:30:18.435Z,11.61
2018-11-12T07:31:18.432Z,11.55
2018-11-12T07:32:18.399Z,11.57
2018-11-12T07:33:18.372Z,11.54
2018-11-12T07:34:18.352Z,11.55
2018-11-12T07:35:18.332Z,11.51
2018-11-12T07:36:18.311Z,11.60
2018-11-12T07:37:18.291Z,11.55
2018-11-12T07:38:18.271Z,11.58
2018-11-12T07:39:18.250Z,11.55
2018-11-12T07:40:18.237Z,11.55
2018-11-12T07:41:18.210Z,11.58
2018-11-12T07:42:18.190Z,11.54
2018-11-12T07:43:18.174Z,11.55
2018-11-12T07:44:18.148Z,11.55
2018-11-12T07:45:18.129Z,11.55
2018-11-12T07:46:18.108Z,11.57
2018-11-12T07:47:18.093Z,11.60
2018-11-12T07:48:18.073Z,11.58
2018-11-12T07:51:18.038Z,11.64
2018-11-12T07:52:17.985Z,11.70
2018-11-12T07:53:17.969Z,11.61
2018-11-12T07:54:17.956Z,11.51
2018-11-12T07:55:17.927Z,11.60
2018-11-12T07:56:17.954Z,11.58
2018-11-12T07:57:17.884Z,11.60
2018-11-12T07:58:17.864Z,11.54
2018-11-12T07:59:17.845Z,11.67
2018-11-12T08:00:17.825Z,11.60
2018-11-12T08:01:17.804Z,11.78
2018-11-12T08:02:17.783Z,11.65
2018-11-12T08:03:17.795Z,11.64
2018-11-12T08:04:17.743Z,11.60
2018-11-12T08:05:17.732Z,11.78
2018-11-12T08:06:17.704Z,11.69
2018-11-12T08:07:17.683Z,11.67
2018-11-12T08:08:17.662Z,11.64
2018-11-12T08:09:17.750Z,11.61
2018-11-12T08:10:17.626Z,11.60
2018-11-12T08:11:17.603Z,11.64
2018-11-12T08:12:17.581Z,11.65
2018-11-12T08:13:17.561Z,11.61
2018-11-12T08:14:17.602Z,11.65
2018-11-12T08:15:17.521Z,11.62
2018-11-12T08:16:17.502Z,11.61
2018-11-12T08:17:17.486Z,11.60
2018-11-12T08:18:17.459Z,11.57
2018-11-12T08:19:17.438Z,11.61
2018-11-12T08:20:17.422Z,11.62
2018-11-12T08:21:17.422Z,11.60
2018-11-12T08:22:17.381Z,11.72
2018-11-12T08:23:17.360Z,11.72
2018-11-12T08:24:17.455Z,11.64
2018-11-12T08:25:17.318Z,11.61
2018-11-12T08:26:17.297Z,11.55
2018-11-12T08:27:17.286Z,11.58
2018-11-12T08:28:17.256Z,11.60
2018-11-12T08:29:17.239Z,11.57
2018-11-12T08:30:17.297Z,11.60
2018-11-12T08:31:17.194Z,11.57
2018-11-12T08:32:17.175Z,11.60
2018-11-12T08:33:17.152Z,11.58
2018-11-12T08:34:17.136Z,11.58
2018-11-12T08:35:17.116Z,11.58
2018-11-12T08:36:17.133Z,11.57
2018-11-12T08:37:17.081Z,11.55
2018-11-12T08:38:17.054Z,11.64
2018-11-12T08:39:17.128Z,11.62
2018-11-12T08:40:17.047Z,11.54
2018-11-12T08:41:17.012Z,11.60
2018-11-12T08:42:16.973Z,11.67
2018-11-12T08:43:16.950Z,11.61
2018-11-12T08:44:16.943Z,11.72
2018-11-12T08:45:16.911Z,11.58
2018-11-12T08:46:16.900Z,11.67
2018-11-12T08:47:16.878Z,11.67
2018-11-12T08:48:16.904Z,11.70
2018-11-12T08:49:16.925Z,11.72
2018-11-12T08:50:16.809Z,11.76
2018-11-12T08:51:16.800Z,11.83
2018-11-12T08:52:16.912Z,11.79
2018-11-12T08:53:16.754Z,11.75
2018-11-12T08:54:16.738Z,11.78
2018-11-12T08:55:16.879Z,11.80
2018-11-12T08:56:16.688Z,11.82
2018-11-12T08:57:16.675Z,11.82
2018-11-12T08:58:17.544Z,11.83
2018-11-12T08:59:16.742Z,11.80
2018-11-12T09:00:16.607Z,11.79
2018-11-12T09:01:16.590Z,11.72
2018-11-12T09:02:16.567Z,11.79
2018-11-12T09:03:16.548Z,11.76
2018-11-12T09:04:16.566Z,11.67
2018-11-12T09:05:16.509Z,11.73
2018-11-12T09:06:16.488Z,11.73
2018-11-12T09:07:16.889Z,11.75
2018-11-12T09:08:16.446Z,11.75
2018-11-12T09:09:16.440Z,11.78
2018-11-12T09:10:16.500Z,11.73
2018-11-12T09:11:16.384Z,11.78
2018-11-12T09:12:16.365Z,11.73
2018-11-12T09:13:16.345Z,11.79
2018-11-12T09:14:16.333Z,11.83
2018-11-12T09:15:16.302Z,11.76
2018-11-12T09:16:16.283Z,11.83
2018-11-12T09:17:16.263Z,11.88
2018-11-12T09:18:16.244Z,11.90
2018-11-12T09:19:16.224Z,11.86
2018-11-12T09:20:16.201Z,11.91
2018-11-12T09:21:16.187Z,11.88
2018-11-12T09:22:16.161Z,11.88
2018-11-12T09:23:16.140Z,11.83
2018-11-12T09:24:16.183Z,11.94
2018-11-12T09:25:16.109Z,11.98
2018-11-12T09:26:16.082Z,11.90
2018-11-12T09:27:16.063Z,11.88
2018-11-12T09:28:16.041Z,11.91
2018-11-12T09:29:16.025Z,11.90
2018-11-12T09:30:16.004Z,11.98
2018-11-12T09:31:16.944Z,11.95
2018-11-12T09:32:15.959Z,11.98
2018-11-12T09:33:15.939Z,11.99
2018-11-12T09:34:15.925Z,11.90
2018-11-12T09:35:15.902Z,12.05
2018-11-12T09:36:15.917Z,12.02
2018-11-12T09:37:15.911Z,11.90
2018-11-12T09:38:15.844Z,11.88
2018-11-12T09:39:15.826Z,11.99
2018-11-12T09:40:15.800Z,12.04
2018-11-12T09:41:15.806Z,12.01
2018-11-12T09:42:15.772Z,12.05
2018-11-12T09:43:15.753Z,12.05
2018-11-12T09:44:15.733Z,12.01
2018-11-12T09:45:15.696Z,12.13
2018-11-12T09:46:15.682Z,12.14
2018-11-12T09:47:15.655Z,12.10
2018-11-12T09:48:15.640Z,12.13
2018-11-12T09:49:15.865Z,12.12
2018-11-12T09:50:15.596Z,12.13
2018-11-12T09:51:15.581Z,12.09
2018-11-12T09:52:15.559Z,12.10
2018-11-12T09:53:15.536Z,12.13
2018-11-12T09:54:15.565Z,12.16
2018-11-12T09:55:15.497Z,12.09
2018-11-12T09:56:15.476Z,12.09
2018-11-12T09:57:15.454Z,12.16
2018-11-12T09:58:15.435Z,12.09
2018-11-12T09:59:15.513Z,12.14
2018-11-12T10:00:15.530Z,12.12
2018-11-12T10:01:15.567Z,12.13
2018-11-12T10:02:15.887Z,12.17
2018-11-12T10:03:16.879Z,12.10
2018-11-12T10:04:15.704Z,12.17
2018-11-12T10:05:16.755Z,12.17
2018-11-12T10:06:16.723Z,12.17
2018-11-12T10:07:16.386Z,12.20
2018-11-12T10:08:16.841Z,12.23
2018-11-12T10:09:17.643Z,12.13
2018-11-12T10:10:17.841Z,12.16
2018-11-12T10:11:17.765Z,12.20
2018-11-12T10:12:18.639Z,12.23
2018-11-12T10:13:16.991Z,12.20
2018-11-12T10:14:17.630Z,12.21
2018-11-12T10:15:18.825Z,12.23
2018-11-12T10:16:17.920Z,12.19
2018-11-12T10:17:17.956Z,12.21
2018-11-12T10:18:15.040Z,12.21
2018-11-12T10:19:15.017Z,12.17
2018-11-12T10:20:15.028Z,12.31
2018-11-12T10:21:14.975Z,12.23
2018-11-12T10:22:14.953Z,12.27
2018-11-12T10:23:14.934Z,12.27
2018-11-12T10:24:14.926Z,12.32
2018-11-12T10:25:14.893Z,12.28
2018-11-12T10:26:14.872Z,12.27
2018-11-12T10:27:14.879Z,12.42
2018-11-12T10:28:14.830Z,12.45
2018-11-12T10:29:14.811Z,12.34
2018-11-12T10:30:14.791Z,12.42
2018-11-12T10:31:14.829Z,12.49
2018-11-12T10:32:14.753Z,12.38
2018-11-12T10:33:14.731Z,12.35
2018-11-12T10:34:14.840Z,12.47
2018-11-12T10:35:14.692Z,12.39
2018-11-12T10:36:14.677Z,12.45
2018-11-12T10:37:14.651Z,12.38
2018-11-12T10:38:14.632Z,12.47
2018-11-12T10:39:14.618Z,12.38
2018-11-12T10:40:14.593Z,12.39
2018-11-12T10:41:14.625Z,12.41
2018-11-12T10:42:14.551Z,12.41
2018-11-12T10:43:14.539Z,12.38
2018-11-12T10:44:14.513Z,12.42
2018-11-12T10:45:14.490Z,12.49
2018-11-12T10:46:14.485Z,12.52
2018-11-12T10:47:14.451Z,12.42
2018-11-12T10:48:14.473Z,12.54
2018-11-12T10:49:14.412Z,12.56
2018-11-12T10:50:14.391Z,12.53
2018-11-12T10:51:14.413Z,12.50
2018-11-12T10:52:14.352Z,12.52
2018-11-12T10:53:14.331Z,12.56
2018-11-12T10:54:14.391Z,12.68
2018-11-12T10:55:14.386Z,12.65
2018-11-12T10:56:14.291Z,12.67
2018-11-12T10:57:14.251Z,12.64
2018-11-12T10:58:14.266Z,12.62
2018-11-12T10:59:14.212Z,12.64
2018-11-12T11:00:14.201Z,12.59
2018-11-12T11:01:14.170Z,12.57
2018-11-12T11:02:14.155Z,12.62
2018-11-12T11:03:14.132Z,12.56
2018-11-12T11:04:14.123Z,12.70
2018-11-12T11:05:14.100Z,12.49
2018-11-12T11:06:14.072Z,12.49
2018-11-12T11:07:14.055Z,12.59
2018-11-12T11:08:14.081Z,12.49
2018-11-12T11:09:14.013Z,12.52
2018-11-12T11:10:13.993Z,12.57
2018-11-12T11:11:13.986Z,12.50
2018-11-12T11:12:13.952Z,12.50
2018-11-12T11:13:13.944Z,12.52
2018-11-12T11:14:13.914Z,12.49
2018-11-12T11:15:13.910Z,12.59
2018-11-12T11:16:13.875Z,12.52
2018-11-12T11:17:13.864Z,12.53
2018-11-12T11:18:13.834Z,12.56
2018-11-12T11:19:13.812Z,12.50
2018-11-12T11:20:13.795Z,12.59
2018-11-12T11:21:13.875Z,12.54
2018-11-12T11:22:13.752Z,12.67
2018-11-12T11:23:13.734Z,12.65
2018-11-12T11:24:13.722Z,12.75
2018-11-12T11:25:13.701Z,12.67
2018-11-12T11:26:13.677Z,12.65
2018-11-12T11:27:13.653Z,12.68
2018-11-12T11:28:13.635Z,12.70
2018-11-12T11:29:13.618Z,12.70
2018-11-12T11:30:13.596Z,12.74
2018-11-12T11:31:13.575Z,12.72
2018-11-12T11:32:13.556Z,12.77
2018-11-12T11:33:13.537Z,12.77
2018-11-12T11:34:13.520Z,12.75
2018-11-12T11:35:13.495Z,12.79
2018-11-12T11:36:13.474Z,12.78
2018-11-12T11:37:13.488Z,12.72
2018-11-12T11:38:13.509Z,12.82
2018-11-12T11:39:13.415Z,12.70
2018-11-12T11:40:13.471Z,12.74
2018-11-12T11:41:13.376Z,12.72
2018-11-12T11:42:13.356Z,12.75
2018-11-12T11:43:13.335Z,12.71
2018-11-12T11:44:13.316Z,12.78
2018-11-12T11:45:13.294Z,12.74
2018-11-12T11:46:13.318Z,12.71
2018-11-12T11:47:13.279Z,12.64
2018-11-12T11:48:13.431Z,12.65
2018-11-12T11:49:13.214Z,12.62
2018-11-12T11:50:13.255Z,12.72
2018-11-12T11:51:13.177Z,12.75
2018-11-12T11:52:13.154Z,12.70
2018-11-12T11:53:13.135Z,12.64
2018-11-12T11:54:13.116Z,12.64
2018-11-12T11:55:13.103Z,12.71
2018-11-12T11:56:13.138Z,12.70
2018-11-12T11:57:13.136Z,12.68
2018-11-12T11:58:13.034Z,12.68
2018-11-12T11:59:13.020Z,12.77
2018-11-12T12:00:13.038Z,12.89
2018-11-12T12:01:12.975Z,12.78
2018-11-12T12:02:12.971Z,12.82
2018-11-12T12:03:12.940Z,12.79
2018-11-12T12:04:12.916Z,12.89
2018-11-12T12:05:12.906Z,12.90
2018-11-12T12:06:12.874Z,12.96
2018-11-12T12:07:12.864Z,13.00
2018-11-12T12:08:12.836Z,12.96
2018-11-12T12:09:12.844Z,12.96
2018-11-12T12:10:12.796Z,12.92
2018-11-12T12:11:12.786Z,12.83
2018-11-12T12:12:12.758Z,12.92
2018-11-12T12:13:12.742Z,12.95
2018-11-12T12:14:12.717Z,12.93
2018-11-12T12:15:12.697Z,12.93
2018-11-12T12:16:12.675Z,13.00
2018-11-12T12:17:12.665Z,12.95
2018-11-12T12:18:12.680Z,12.95
2018-11-12T12:19:12.653Z,12.92
2018-11-12T12:20:12.600Z,12.97
2018-11-12T12:21:12.576Z,12.92
2018-11-12T12:22:12.558Z,12.96
2018-11-12T12:23:12.538Z,12.96
2018-11-12T12:24:12.516Z,12.92
2018-11-12T12:25:12.687Z,13.03
2018-11-12T12:26:12.474Z,12.92
2018-11-12T12:27:12.455Z,13.00
2018-11-12T12:28:12.436Z,13.04
2018-11-12T12:29:12.419Z,13.03
2018-11-12T12:30:12.410Z,13.05
2018-11-12T12:31:12.381Z,12.95
2018-11-12T12:32:12.356Z,13.01
2018-11-12T12:33:12.333Z,13.04
2018-11-12T12:34:12.341Z,13.03
2018-11-12T12:35:12.295Z,13.05
2018-11-12T12:36:12.332Z,13.05
2018-11-12T12:37:12.257Z,13.01
2018-11-12T12:38:12.237Z,12.92
2018-11-12T12:39:12.220Z,13.03
2018-11-12T12:40:12.197Z,12.89
2018-11-12T12:41:12.184Z,13.03
2018-11-12T12:42:12.158Z,12.96
2018-11-12T12:43:12.139Z,12.90
2018-11-12T12:44:12.164Z,12.97
2018-11-12T12:45:12.204Z,13.07
2018-11-12T12:46:12.076Z,13.07
2018-11-12T12:47:12.057Z,13.08
2018-11-12T12:48:12.036Z,13.08
2018-11-12T12:49:12.016Z,13.07
2018-11-12T12:50:11.998Z,13.04
2018-11-12T12:51:12.004Z,13.05
2018-11-12T12:52:11.957Z,13.00
2018-11-12T12:53:11.937Z,13.03
2018-11-12T12:54:11.917Z,12.96